Have a Safe July 4th! 

Flight Track Log - Related Links

Times and Time Zones

All times are in EDT time to prevent confusion due to time zone crossing. See the DAL95 flight status page for this flight to view local times or setup timezone preferences in your user account.

Time Position Orientation Groundspeed Altitude Reporting Facility
EDT Latitude Longitude Course Direction KTS MPH feet Rate Location/Type
Thu 05:29:11 PM 40.6000 -73.7833 237° Southwest 188 216 2,200  Level New York TRACON
Thu 05:30:11 PM 40.5333 -73.7667 169° South 250 288 4,800 2,750 Climbing New York TRACON
Thu 05:31:00 PM 40.3664 -74.2005 232° Southwest  Level FlightAware Approximate
Thu 05:31:11 PM 40.4667 -73.8000 201° Southwest 251 289 7,700  Level New York TRACON
Thu 05:32:00 PM 40.2995 -74.3121 232° Southwest  Level FlightAware Approximate
Thu 05:32:11 PM 40.4333 -73.8833 242° Southwest 267 307 10,900  Level New York TRACON
Thu 05:33:00 PM 40.2363 -74.4245 246° West  Level FlightAware Approximate
Thu 05:33:11 PM 40.4000 -73.9833 246° West 303 349 13,400  Level New York TRACON
Thu 05:34:00 PM 40.1886 -74.5394 237° Southwest  Level FlightAware Approximate
Thu 05:34:11 PM 40.3667 -74.0833 246° West 342 394 14,900  Level New York TRACON
Thu 05:34:46 PM 40.3339 -74.1608 241° Southwest 363 418 16,400 1,326 Climbing New York Center
Thu 05:35:46 PM 40.2886 -74.2783 243° Southwest 363 418 17,000 298 Climbing New York Center
Thu 05:36:47 PM 40.2478 -74.3850 243° Southwest 368 423 17,000  Level New York Center
Thu 05:37:47 PM 40.1958 -74.5153 242° Southwest 368 423 17,000 694 Level New York Center
Thu 05:38:48 PM 40.1919 -74.6375 268° West 362 417 18,400 1,831 Climbing New York Center
Thu 05:39:45 PM 40.1789 -74.7808 263° West 394 453 20,600 2,186 Climbing New York Center
Thu 05:40:46 PM 40.1692 -74.9378 265° West 400 460 22,700 1,869 Climbing New York Center
Thu 05:41:47 PM 40.1578 -75.0836 264° West 405 466 24,400 1,721 Climbing New York Center
Thu 05:42:48 PM 40.1436 -75.2350 263° West 410 472 26,200 1,563 Climbing New York Center
Thu 05:43:46 PM 40.1317 -75.3861 264° West 415 478 27,500 1,017 Climbing New York Center
Thu 05:44:46 PM 40.1169 -75.5481 263° West 434 499 28,200 1,050 Climbing New York Center
Thu 05:45:46 PM 40.1039 -75.7100 264° West 445 512 29,600 1,300 Climbing New York Center
Thu 05:46:46 PM 40.0908 -75.8692 264° West 450 518 30,800 1,240 Climbing New York Center
Thu 05:47:47 PM 40.0756 -76.0283 263° West 450 518 32,100 1,190 Climbing New York Center
Thu 05:48:47 PM 40.0622 -76.1872 264° West 450 518 33,200 992 Climbing New York Center
Thu 05:49:48 PM 40.0419 -76.3511 261° West 450 518 34,100 893 Climbing New York Center
Thu 05:50:48 PM 40.0281 -76.5100 264° West 450 518 35,000 458 Climbing New York Center
Thu 05:51:46 PM 40.0119 -76.6686 262° West 450 518 35,000 203 Level New York Center
Thu 05:52:46 PM 39.9975 -76.8300 263° West 450 518 35,400 496 Climbing New York Center
Thu 05:53:47 PM 39.9808 -76.9886 262° West 450 518 36,000 295 Climbing New York Center
Thu 05:54:48 PM 39.9639 -77.1494 262° West 450 518 36,000  Level New York Center
Thu 05:55:49 PM 39.9531 -77.3083 265° West 450 518 36,000  Level New York Center
Thu 05:56:46 PM 39.9567 -77.4686 272° West 445 512 36,000  Level New York Center
Thu 05:58:02 PM 39.9628 -77.6522 273° West 460 529 36,000  Level Cleveland Center
Thu 05:59:02 PM 39.9686 -77.8092 273° West 448 516 36,000  Level Cleveland Center
Thu 06:00:02 PM 39.9747 -77.9714 273° West 448 516 36,000  Level Cleveland Center
Thu 06:01:04 PM 39.9803 -78.1339 273° West 448 516 36,000  Level Cleveland Center
Thu 06:02:02 PM 39.9797 -78.2992 270° West 448 516 36,000  Level Cleveland Center
Thu 06:03:02 PM 39.9847 -78.4589 272° West 448 516 36,000  Level Cleveland Center
Thu 06:04:02 PM 40.0272 -78.6147 290° West 448 516 36,000  Level Cleveland Center
Thu 06:05:02 PM 40.0736 -78.7653 292° West 448 516 36,000  Level Cleveland Center
Thu 06:06:02 PM 40.1217 -78.9161 293° West 458 527 36,000  Level Cleveland Center
Thu 06:07:02 PM 40.1697 -79.0669 293° West 458 527 36,000  Level Cleveland Center
Thu 06:08:02 PM 40.2153 -79.2183 292° West 453 521 36,000  Level Cleveland Center
Thu 06:09:02 PM 40.2650 -79.3722 293° West 441 507 36,000  Level Cleveland Center
Thu 06:10:02 PM 40.3081 -79.5158 292° West 430 495 36,000 -400 Level Cleveland Center
Thu 06:11:02 PM 40.3533 -79.6650 292° West 430 495 35,200 -900 Descending Cleveland Center
Thu 06:12:02 PM 40.4003 -79.8169 292° West 437 503 34,200 -1,000 Descending Cleveland Center
Thu 06:13:02 PM 40.4492 -79.9719 293° West 448 516 33,200 -950 Descending Cleveland Center
Thu 06:14:02 PM 40.4872 -80.1164 289° West 454 522 32,300 -950 Descending Cleveland Center
Thu 06:15:02 PM 40.5336 -80.2717 292° West 461 531 31,300 -650 Descending Cleveland Center
Thu 06:16:02 PM 40.5819 -80.4272 292° West 461 531 31,000 -150 Descending Cleveland Center
Thu 06:17:02 PM 40.6239 -80.5803 290° West 456 525 31,000 -400 Level Cleveland Center
Thu 06:18:02 PM 40.6736 -80.7308 294° West 456 525 30,200 -500 Descending Cleveland Center
Thu 06:19:02 PM 40.7400 -80.8736 302° West 449 517 30,000 -100 Descending Cleveland Center
Thu 06:20:02 PM 40.8083 -81.0139 303° West 455 524 30,000  Level Cleveland Center
Thu 06:21:02 PM 40.8828 -81.1736 302° West 460 529 30,000 -1,100 Level Cleveland Center
Thu 06:22:02 PM 40.9508 -81.3144 303° West 460 529 27,800 -2,200 Descending Cleveland Center
Thu 06:23:02 PM 41.0206 -81.4556 303° West 462 532 25,600 -1,600 Descending Cleveland Center
Thu 06:24:02 PM 41.0883 -81.5969 302° West 462 532 24,600 -800 Descending Cleveland Center
Thu 06:25:02 PM 41.1478 -81.7108 305° West 438 504 24,000 -300 Descending Cleveland Center
Thu 06:26:02 PM 41.2108 -81.8417 303° West 427 491 24,000  Level Cleveland Center
Thu 06:27:02 PM 41.2678 -81.9700 301° West 419 482 24,000 -150 Level Cleveland Center
Thu 06:28:02 PM 41.3308 -82.0958 304° West 413 475 23,700 -1,300 Descending Cleveland Center
Thu 06:29:02 PM 41.4019 -82.2386 304° West 413 475 21,400 -2,200 Descending Cleveland Center
Thu 06:30:02 PM 41.4708 -82.3539 309° West 406 467 19,300 -2,150 Descending Cleveland Center
Thu 06:31:02 PM 41.5358 -82.4611 309° West 388 447 17,100 -2,154 Descending Cleveland Center
Thu 06:31:20 PM 41.5564 -82.4950 309° West 371 427 16,500 -1,800 Descending Cleveland Center
Thu 06:32:02 PM 41.5967 -82.5628 308° West 369 425 15,300 -1,592 Descending Cleveland Center
Thu 06:32:58 PM 41.6475 -82.6506 308° West 300 345 13,900 -1,676 Descending Cleveland Center
Thu 06:33:53 PM 41.6981 -82.7328 309° West 303 349 12,200 -983 Descending Cleveland Center
Thu 06:34:54 PM 41.7547 -82.8128 314° West 303 349 12,000 -93 Descending Cleveland Center
Thu 06:36:02 PM 41.8219 -82.8986 316° Northwest 299 344 12,000  Level Cleveland Center
Thu 06:36:55 PM 41.8808 -82.9678 319° Northwest 307 353 12,000  Level Cleveland Center
Thu 06:37:56 PM 41.9481 -83.0456 319° Northwest 305 351 12,000  Level Cleveland Center
Thu 06:39:02 PM 42.0239 -83.1100 328° Northwest 304 350 12,000 -344 Level Cleveland Center
Thu 06:39:58 PM 42.1094 -83.1078 North 343 395 11,300 -718 Descending Cleveland Center
Thu 06:40:59 PM 42.1969 -83.1058 North 300 345 10,600 -1,031 Descending Cleveland Center
Thu 06:42:06 PM 42.2908 -83.1039 North 296 341 9,100 -1,377 Descending Cleveland Center
Thu 06:43:01 PM 42.3661 -83.0983 North 290 334 7,800 -1,500 Descending Cleveland Center
Thu 06:44:02 PM 42.4358 -83.0450 29° Northeast 278 320 6,200 -844 Descending Cleveland Center
Thu 06:45:09 PM 42.5047 -83.0503 357° North 196 226 6,000 -63 Descending Cleveland Center
Thu 06:47:11 PM 42.4669 -83.1558 244° Southwest 165 190 6,000 -231 Level Cleveland Center
Thu 06:48:11 PM 42.4244 -83.1850 207° Southwest 160 184 5,300 -793 Descending Cleveland Center
Thu 06:49:12 PM 42.3883 -83.2117 209° Southwest 144 166 4,400 -836 Descending Cleveland Center
Thu 06:50:13 PM 42.3525 -83.2356 206° Southwest 148 170 3,600 -787 Descending Cleveland Center
Thu 06:51:14 PM 42.3142 -83.2647 209° Southwest 156 180 2,800 -787 Descending Cleveland Center

Login

Don't have an account? Register now (free) for customized features, flight alerts, and more!